Time;durP1;ratioP1;P1;durP2;ratioP2;P2;SDS_P1;SDS_P2;PMS_P1;PMS_P2;Temp;Humidity;BMP_temperature;BMP_pressure;BME280_temperature;BME280_humidity;BME280_pressure;Samples;Min_cycle;Max_cycle;Signal;HPM_P1;HPM_P2
2021/08/25 00:03:05;;;;;;;3.65;1.70;;;15.10;99.90;;;;;;6670471;88;20225;-76
2021/08/25 00:13:07;;;;;;;3.53;1.75;;;15.20;99.90;;;;;;6670102;88;20183;-77
2021/08/25 00:23:07;;;;;;;6.93;2.60;;;15.00;99.90;;;;;;6670420;88;20231;-76
2021/08/25 00:33:08;;;;;;;4.97;2.33;;;14.50;99.90;;;;;;6671514;88;20188;-76
2021/08/25 00:43:10;;;;;;;6.60;2.37;;;14.20;99.90;;;;;;6671508;88;20234;-76
2021/08/25 00:53:11;;;;;;;4.55;2.25;;;14.10;99.90;;;;;;6669885;88;20330;-77
2021/08/25 01:03:19;;;;;;;7.00;2.65;;;13.90;99.90;;;;;;6671641;88;20201;-76
2021/08/25 01:13:20;;;;;;;4.25;2.10;;;13.90;99.90;;;;;;6669942;89;20203;-76
2021/08/25 01:23:21;;;;;;;5.72;2.40;;;13.70;99.90;;;;;;6667530;88;20797;-76
2021/08/25 01:33:23;;;;;;;5.18;2.37;;;13.60;99.90;;;;;;6672962;89;20199;-76
2021/08/25 01:43:24;;;;;;;5.62;2.75;;;13.60;99.90;;;;;;6670416;89;20256;-76
2021/08/25 01:53:24;;;;;;;5.57;2.90;;;13.30;99.90;;;;;;6667675;89;20710;-76
2021/08/25 02:03:25;;;;;;;5.35;2.72;;;13.10;99.90;;;;;;6670049;89;20223;-76
2021/08/25 02:13:26;;;;;;;6.93;3.10;;;13.00;99.90;;;;;;6667565;89;20252;-76
2021/08/25 02:23:27;;;;;;;4.62;2.58;;;13.10;99.90;;;;;;6667924;88;20196;-74
2021/08/25 02:33:27;;;;;;;6.80;2.22;;;12.90;99.90;;;;;;6670705;89;20212;-75
2021/08/25 02:43:28;;;;;;;6.70;2.60;;;12.90;99.90;;;;;;6669189;88;20188;-76
2021/08/25 02:53:28;;;;;;;4.72;2.40;;;12.70;99.90;;;;;;6669534;88;20229;-75
2021/08/25 03:03:29;;;;;;;5.67;2.47;;;12.60;99.90;;;;;;6672085;89;20171;-75
2021/08/25 03:13:29;;;;;;;5.10;2.35;;;12.40;99.90;;;;;;6672158;88;20663;-75
2021/08/25 03:23:30;;;;;;;5.07;2.33;;;12.40;99.90;;;;;;6670078;88;20229;-75
2021/08/25 03:33:31;;;;;;;5.87;2.47;;;12.40;99.90;;;;;;6670646;88;20213;-75
2021/08/25 03:43:31;;;;;;;5.40;2.62;;;12.30;99.90;;;;;;6667043;88;20207;-75
2021/08/25 03:53:32;;;;;;;7.10;2.20;;;12.30;99.90;;;;;;6671031;88;21041;-75
2021/08/25 04:03:32;;;;;;;6.03;2.50;;;12.30;99.90;;;;;;6672034;88;20180;-75
2021/08/25 04:13:33;;;;;;;5.72;2.53;;;12.30;99.90;;;;;;6670761;88;20241;-75
2021/08/25 04:23:33;;;;;;;6.80;2.90;;;12.10;99.90;;;;;;6669485;88;20233;-76
2021/08/25 04:33:35;;;;;;;5.78;2.60;;;12.10;99.90;;;;;;6671530;88;20194;-76
2021/08/25 04:43:36;;;;;;;6.15;2.87;;;12.10;99.90;;;;;;6670738;89;20225;-76
2021/08/25 04:53:37;;;;;;;6.07;3.25;;;11.90;99.90;;;;;;6670582;88;20191;-76
2021/08/25 05:03:37;;;;;;;7.12;3.60;;;11.90;99.90;;;;;;6672099;88;20253;-75
2021/08/25 05:13:38;;;;;;;6.10;3.30;;;12.00;99.90;;;;;;6676526;88;20405;-75
2021/08/25 05:23:39;;;;;;;8.20;3.37;;;12.00;99.90;;;;;;6669950;89;20238;-76
2021/08/25 05:33:39;;;;;;;9.27;3.60;;;12.00;99.90;;;;;;6670007;88;20223;-75
2021/08/25 05:43:40;;;;;;;7.05;3.20;;;12.00;99.90;;;;;;6676238;88;20234;-77
2021/08/25 05:53:40;;;;;;;8.65;3.28;;;12.20;99.90;;;;;;6668603;88;20309;-76
2021/08/25 06:03:41;;;;;;;8.20;3.28;;;12.60;99.90;;;;;;6667130;88;20681;-75
2021/08/25 06:13:42;;;;;;;10.60;3.55;;;13.10;99.90;;;;;;6668609;89;20275;-75
2021/08/25 06:23:44;;;;;;;9.18;3.95;;;13.60;99.90;;;;;;6677378;88;20282;-76
2021/08/25 06:33:44;;;;;;;9.65;4.10;;;14.10;99.90;;;;;;6675973;88;20190;-75
2021/08/25 06:43:45;;;;;;;9.30;4.10;;;14.60;99.90;;;;;;6670733;88;20730;-76
2021/08/25 06:53:46;;;;;;;8.15;3.22;;;14.90;99.90;;;;;;6679396;88;20314;-75
2021/08/25 07:03:46;;;;;;;5.95;3.10;;;15.40;99.90;;;;;;6665636;88;20262;-76
2021/08/25 07:13:47;;;;;;;7.17;3.20;;;15.90;99.90;;;;;;6667045;88;20337;-77
2021/08/25 07:23:50;;;;;;;8.65;3.00;;;16.70;99.90;;;;;;6676399;88;20561;-74
2021/08/25 07:33:51;;;;;;;7.00;2.90;;;17.50;99.90;;;;;;6665946;89;20186;-75
2021/08/25 07:43:52;;;;;;;5.68;2.55;;;18.10;99.90;;;;;;6671889;89;20251;-76
2021/08/25 07:53:52;;;;;;;5.57;2.67;;;18.60;99.90;;;;;;6682978;88;20179;-73
2021/08/25 08:03:53;;;;;;;7.77;2.87;;;18.70;99.90;;;;;;6671539;88;20711;-75
2021/08/25 08:13:53;;;;;;;7.10;3.00;;;19.60;99.90;;;;;;6662974;89;20221;-76
2021/08/25 08:23:55;;;;;;;5.80;2.27;;;20.30;99.90;;;;;;6673328;88;20241;-76
2021/08/25 08:33:56;;;;;;;7.40;2.47;;;20.80;99.90;;;;;;6679243;88;20266;-75
2021/08/25 08:43:57;;;;;;;4.22;2.42;;;21.10;99.90;;;;;;6674224;88;20209;-76
2021/08/25 08:53:57;;;;;;;4.85;2.33;;;21.70;99.90;;;;;;6671501;89;20176;-77
2021/08/25 09:03:58;;;;;;;6.97;2.42;;;22.20;99.90;;;;;;6672824;88;20945;-76
2021/08/25 09:14:09;;;;;;;6.50;2.40;;;23.20;97.50;;;;;;6680301;88;20259;-76
2021/08/25 09:24:11;;;;;;;4.20;2.30;;;24.30;97.20;;;;;;6682683;88;20250;-77
2021/08/25 09:34:31;;;;;;;8.75;2.37;;;24.90;95.70;;;;;;6684773;88;20212;-75
2021/08/25 09:44:31;;;;;;;5.68;2.30;;;24.60;95.80;;;;;;6679438;88;20175;-76
2021/08/25 09:54:32;;;;;;;7.03;2.85;;;26.00;94.90;;;;;;6675548;89;21170;-77
2021/08/25 10:04:34;;;;;;;5.80;2.40;;;26.30;92.40;;;;;;6673699;89;20190;-77
2021/08/25 10:14:36;;;;;;;5.33;2.13;;;26.60;92.30;;;;;;6682521;88;20198;-77
2021/08/25 10:24:55;;;;;;;4.40;1.90;;;27.80;89.90;;;;;;6681461;88;20191;-77
2021/08/25 10:35:13;;;;;;;5.03;2.20;;;27.90;87.30;;;;;;6678626;89;20192;-78
2021/08/25 10:45:16;;;;;;;5.05;2.40;;;28.70;84.50;;;;;;6680152;89;20199;-76
2021/08/25 10:55:16;;;;;;;4.45;2.20;;;29.00;82.20;;;;;;6684484;88;20701;-76
2021/08/25 11:05:18;;;;;;;6.10;2.42;;;28.90;77.10;;;;;;6686887;88;20220;-77
2021/08/25 11:15:29;;;;;;;7.70;2.58;;;30.10;75.10;;;;;;6681106;88;20222;-75
2021/08/25 11:25:30;;;;;;;7.70;2.80;;;30.30;70.10;;;;;;6674260;89;20238;-76
2021/08/25 11:35:32;;;;;;;4.62;2.47;;;29.70;70.90;;;;;;6662843;89;20220;-76
2021/08/25 11:45:33;;;;;;;5.12;2.75;;;30.00;70.20;;;;;;6663692;89;20198;-76
2021/08/25 11:55:35;;;;;;;3.77;2.20;;;30.10;69.60;;;;;;6671841;88;20748;-77
2021/08/25 12:05:38;;;;;;;7.12;2.83;;;31.20;68.50;;;;;;6667520;88;20195;-75
2021/08/25 12:15:47;;;;;;;6.80;2.95;;;30.50;67.70;;;;;;6679498;88;20571;-76
2021/08/25 12:25:53;;;;;;;4.62;2.80;;;30.60;68.80;;;;;;6679248;88;20222;-76
2021/08/25 12:35:53;;;;;;;6.20;2.97;;;29.90;67.90;;;;;;6679456;88;20232;-76
2021/08/25 12:45:54;;;;;;;10.20;2.97;;;30.10;68.60;;;;;;6671339;88;20330;-77
2021/08/25 12:55:54;;;;;;;5.32;2.83;;;30.10;68.40;;;;;;6662861;89;20292;-76
2021/08/25 13:05:55;;;;;;;5.97;2.90;;;30.40;67.70;;;;;;6675633;88;20234;-76
2021/08/25 13:15:55;;;;;;;6.90;3.20;;;31.00;67.10;;;;;;6678748;88;20250;-76
2021/08/25 13:25:56;;;;;;;6.43;3.42;;;30.30;67.20;;;;;;6678949;88;20192;-76
2021/08/25 13:35:57;;;;;;;6.17;3.23;;;30.60;66.60;;;;;;6679133;88;20212;-76
2021/08/25 13:45:57;;;;;;;8.23;3.27;;;30.80;65.10;;;;;;6670920;88;20207;-76
2021/08/25 13:55:58;;;;;;;7.87;4.00;;;31.30;64.60;;;;;;6679654;89;20197;-77
2021/08/25 14:05:58;;;;;;;6.35;3.45;;;30.70;62.90;;;;;;6684305;89;20670;-76
2021/08/25 14:15:59;;;;;;;10.05;3.37;;;30.10;64.50;;;;;;6693465;89;20336;-76
2021/08/25 14:25:59;;;;;;;6.20;3.58;;;29.90;65.20;;;;;;6664950;88;20237;-76
2021/08/25 14:36:00;;;;;;;7.37;4.20;;;30.70;64.40;;;;;;6664459;89;20242;-76
2021/08/25 14:46:01;;;;;;;11.20;3.65;;;29.80;64.20;;;;;;6663909;89;20196;-76
2021/08/25 14:56:02;;;;;;;7.90;4.00;;;29.00;66.80;;;;;;6672008;88;20191;-76
2021/08/25 15:06:05;;;;;;;9.13;4.10;;;28.90;66.40;;;;;;6669102;88;20237;-76
2021/08/25 15:16:24;;;;;;;6.90;4.00;;;28.70;66.40;;;;;;6665752;88;20697;-77
2021/08/25 15:26:26;;;;;;;9.77;4.07;;;29.10;65.60;;;;;;6677888;88;20639;-76
2021/08/25 15:36:27;;;;;;;7.77;4.40;;;28.60;65.10;;;;;;6679590;88;20208;-76
2021/08/25 15:46:28;;;;;;;7.73;4.33;;;27.60;66.90;;;;;;6677071;88;20555;-78
2021/08/25 15:56:29;;;;;;;9.73;4.72;;;27.60;66.60;;;;;;6679661;88;20514;-78
2021/08/25 16:06:29;;;;;;;11.52;4.35;;;27.10;66.20;;;;;;6662785;89;20230;-76
2021/08/25 16:16:30;;;;;;;10.68;4.60;;;26.10;69.20;;;;;;6664321;89;20277;-76
2021/08/25 16:26:31;;;;;;;18.12;4.78;;;25.70;70.80;;;;;;6670125;88;20317;-75
2021/08/25 16:36:31;;;;;;;10.32;4.37;;;25.10;73.00;;;;;;6678755;88;20195;-75
2021/08/25 16:46:32;;;;;;;8.68;4.28;;;24.70;73.60;;;;;;6679633;88;20735;-76
2021/08/25 16:56:37;;;;;;;10.85;4.07;;;24.10;74.50;;;;;;6668510;88;20204;-74
2021/08/25 17:06:38;;;;;;;7.55;3.35;;;24.00;75.10;;;;;;6678483;88;20291;-74
2021/08/25 17:16:38;;;;;;;5.80;3.03;;;24.00;76.40;;;;;;6667694;88;20212;-76
2021/08/25 17:26:39;;;;;;;7.32;3.45;;;23.90;76.40;;;;;;6668734;88;20199;-77
2021/08/25 17:36:39;;;;;;;7.45;2.83;;;23.60;77.30;;;;;;6675840;88;20287;-76
2021/08/25 17:46:40;;;;;;;6.93;3.10;;;22.90;78.90;;;;;;6675179;88;20309;-75
2021/08/25 17:56:40;;;;;;;5.78;3.20;;;22.30;80.10;;;;;;6670071;89;20550;-75
2021/08/25 18:06:41;;;;;;;7.82;3.05;;;21.90;81.10;;;;;;6672870;88;20300;-76
2021/08/25 18:16:41;;;;;;;11.80;4.60;;;21.70;81.90;;;;;;6664128;89;20209;-77
2021/08/25 18:26:43;;;;;;;6.80;2.87;;;21.40;83.60;;;;;;6673806;88;20209;-76
2021/08/25 18:36:43;;;;;;;6.78;3.17;;;21.20;85.60;;;;;;6669765;88;20246;-75
2021/08/25 18:46:44;;;;;;;5.07;2.72;;;20.80;87.40;;;;;;6665236;88;20989;-76
2021/08/25 18:56:44;;;;;;;7.18;2.87;;;20.60;89.80;;;;;;6674585;88;20175;-76
2021/08/25 19:06:45;;;;;;;7.10;3.10;;;20.30;91.30;;;;;;6678265;88;20715;-75
2021/08/25 19:16:45;;;;;;;6.87;3.22;;;20.10;93.30;;;;;;6676634;88;20824;-75
2021/08/25 19:26:46;;;;;;;10.48;3.60;;;19.70;95.20;;;;;;6666575;88;20745;-75
2021/08/25 19:36:46;;;;;;;11.03;3.47;;;19.40;97.40;;;;;;6666799;89;20759;-74
2021/08/25 19:46:47;;;;;;;11.43;3.35;;;19.10;99.50;;;;;;6670508;88;20323;-76
2021/08/25 19:56:48;;;;;;;10.90;4.30;;;19.00;99.90;;;;;;6667721;88;20655;-74
2021/08/25 20:06:48;;;;;;;9.50;4.07;;;18.70;99.90;;;;;;6675563;88;20504;-76
2021/08/25 20:16:49;;;;;;;7.95;3.85;;;18.50;99.90;;;;;;6681153;88;20200;-75
2021/08/25 20:26:50;;;;;;;9.18;3.47;;;18.40;99.90;;;;;;6678916;88;20247;-76
2021/08/25 20:36:51;;;;;;;8.95;3.92;;;18.20;99.90;;;;;;6673466;88;20370;-75
2021/08/25 20:46:52;;;;;;;7.53;4.03;;;18.10;99.90;;;;;;6669480;88;20210;-76
2021/08/25 20:56:53;;;;;;;8.48;4.20;;;17.90;99.90;;;;;;6673983;88;20297;-76
2021/08/25 21:06:53;;;;;;;11.85;4.07;;;17.70;99.90;;;;;;6674296;88;20193;-76
2021/08/25 21:16:54;;;;;;;7.40;3.90;;;17.60;99.90;;;;;;6671619;88;20272;-76
2021/08/25 21:26:55;;;;;;;8.82;4.75;;;17.40;99.90;;;;;;6672319;88;20225;-76
2021/08/25 21:36:55;;;;;;;8.75;4.20;;;17.40;99.90;;;;;;6674865;88;20223;-76
2021/08/25 21:46:56;;;;;;;7.62;3.90;;;17.40;99.90;;;;;;6676863;88;20245;-77
2021/08/25 21:56:59;;;;;;;6.70;3.60;;;17.40;99.90;;;;;;6679711;89;20201;-77
2021/08/25 22:06:59;;;;;;;4.55;2.80;;;17.40;99.90;;;;;;6667249;89;20194;-76
2021/08/25 22:17:00;;;;;;;5.70;2.10;;;17.60;99.90;;;;;;6667738;89;20248;-76
2021/08/25 22:27:01;;;;;;;2.97;1.77;;;17.60;99.90;;;;;;6667765;89;20625;-77
2021/08/25 22:37:02;;;;;;;5.65;2.10;;;17.50;99.90;;;;;;6667705;89;20338;-77
2021/08/25 22:47:02;;;;;;;4.75;2.35;;;17.50;99.90;;;;;;6668024;89;20183;-76
2021/08/25 22:57:03;;;;;;;4.05;1.95;;;17.40;99.90;;;;;;6673337;89;20215;-76
2021/08/25 23:07:04;;;;;;;3.85;1.83;;;17.40;99.90;;;;;;6670441;89;20209;-77
2021/08/25 23:17:04;;;;;;;4.87;2.23;;;17.30;99.90;;;;;;6670866;89;20215;-77
2021/08/25 23:27:05;;;;;;;7.53;4.10;;;17.20;99.90;;;;;;6671569;89;20838;-77
2021/08/25 23:37:06;;;;;;;5.90;3.62;;;17.00;99.90;;;;;;6670222;89;20337;-78
2021/08/25 23:47:07;;;;;;;6.40;4.07;;;16.90;99.90;;;;;;6670337;89;20274;-77
2021/08/25 23:57:08;;;;;;;5.97;3.50;;;16.90;99.90;;;;;;6671175;89;20225;-77
